createdAt,value
2018-01-17T00:00:30.830Z,92.14
2018-01-17T00:02:23.621Z,91.76
2018-01-17T00:03:23.577Z,91.38
2018-01-17T00:05:16.573Z,91.09
2018-01-17T00:06:16.520Z,90.81
2018-01-17T00:08:09.462Z,90.72
2018-01-17T00:09:09.405Z,90.34
2018-01-17T00:11:02.410Z,90.34
2018-01-17T00:12:02.350Z,90.53
2018-01-17T00:13:55.301Z,90.43
2018-01-17T00:14:55.260Z,90.39
2018-01-17T00:16:48.211Z,90.39
2018-01-17T00:17:48.157Z,90.15
2018-01-17T00:19:40.961Z,90.10
2018-01-17T00:20:40.912Z,91.05
2018-01-17T00:22:34.197Z,90.95
2018-01-17T00:23:34.011Z,90.58
2018-01-17T00:25:26.955Z,91.05
2018-01-17T00:26:26.892Z,91.05
2018-01-17T00:28:19.835Z,91.05
2018-01-17T00:29:19.856Z,91.81
2018-01-17T00:31:13.000Z,91.71
2018-01-17T00:32:12.840Z,91.62
2018-01-17T00:34:05.771Z,91.81
2018-01-17T00:35:05.725Z,91.62
2018-01-17T00:36:58.661Z,91.43
2018-01-17T00:37:58.672Z,92.00
2018-01-17T00:39:51.822Z,92.00
2018-01-17T00:40:51.666Z,92.47
2018-01-17T00:42:44.616Z,92.28
2018-01-17T00:43:44.553Z,92.38
2018-01-17T00:45:37.485Z,92.76
2018-01-17T00:46:37.446Z,92.47
2018-01-17T00:48:30.261Z,92.76
2018-01-17T00:49:30.200Z,92.57
2018-01-17T00:51:23.323Z,92.57
2018-01-17T00:52:23.289Z,91.90
2018-01-17T00:54:16.114Z,91.81
2018-01-17T00:55:16.040Z,91.81
2018-01-17T00:57:08.986Z,91.81
2018-01-17T00:58:08.985Z,91.90
2018-01-17T01:00:01.864Z,91.81
2018-01-17T01:01:01.790Z,91.62
2018-01-17T01:02:54.590Z,91.81
2018-01-17T01:03:54.535Z,91.62
2018-01-17T01:05:47.492Z,91.62
2018-01-17T01:06:47.497Z,91.81
2018-01-17T01:08:40.356Z,91.81
2018-01-17T01:09:40.320Z,91.43
2018-01-17T01:11:33.258Z,91.43
2018-01-17T01:12:33.196Z,91.81
2018-01-17T01:14:26.015Z,92.19
2018-01-17T01:15:25.958Z,92.57
2018-01-17T01:17:18.752Z,92.57
2018-01-17T01:18:18.708Z,92.94
2018-01-17T01:20:11.665Z,93.13
2018-01-17T01:21:11.610Z,92.85
2018-01-17T01:23:04.553Z,93.61
2018-01-17T01:24:04.548Z,93.51
2018-01-17T01:25:57.448Z,93.89
2018-01-17T01:26:57.397Z,94.08
2018-01-17T01:28:50.472Z,95.03
2018-01-17T01:29:50.409Z,95.22
2018-01-17T01:31:43.191Z,95.50
2018-01-17T01:32:43.157Z,95.41
2018-01-17T01:34:35.970Z,96.45
2018-01-17T01:35:35.906Z,96.17
2018-01-17T01:37:28.841Z,95.60
2018-01-17T01:38:28.787Z,96.07
2018-01-17T01:40:21.607Z,95.69
2018-01-17T01:41:21.551Z,95.41
2018-01-17T01:43:14.367Z,94.74
2018-01-17T01:44:14.341Z,95.03
2018-01-17T01:46:07.290Z,95.31
2018-01-17T01:47:07.267Z,94.84
2018-01-17T01:49:00.198Z,94.37
2018-01-17T01:50:00.183Z,94.74
2018-01-17T01:51:52.945Z,93.89
2018-01-17T01:52:52.897Z,94.08
2018-01-17T01:54:45.717Z,93.89
2018-01-17T01:55:45.668Z,92.38
2018-01-17T01:57:38.627Z,93.23
2018-01-17T01:58:38.570Z,92.47
2018-01-17T02:00:31.521Z,90.86
2018-01-17T02:01:31.461Z,90.29
2018-01-17T02:03:24.282Z,89.91
2018-01-17T02:04:24.213Z,89.29
2018-01-17T02:06:17.173Z,88.73
2018-01-17T02:07:17.101Z,88.82
2018-01-17T02:09:10.136Z,88.82
2018-01-17T02:10:10.067Z,88.63
2018-01-17T02:12:02.897Z,88.06
2018-01-17T02:13:02.841Z,87.49
2018-01-17T02:14:55.635Z,86.83
2018-01-17T02:15:55.600Z,87.40
2018-01-17T02:17:48.546Z,87.59
2018-01-17T02:18:48.477Z,87.21
2018-01-17T02:20:41.417Z,86.64
2018-01-17T02:21:41.387Z,86.45
2018-01-17T02:23:34.341Z,86.83
2018-01-17T02:24:34.276Z,86.83
2018-01-17T02:26:27.203Z,87.21
2018-01-17T02:27:27.302Z,87.30
2018-01-17T02:29:20.142Z,87.40
2018-01-17T02:30:20.077Z,88.16
2018-01-17T02:32:12.871Z,88.92
2018-01-17T02:33:12.837Z,88.35
2018-01-17T02:35:05.796Z,88.92
2018-01-17T02:36:05.722Z,89.15
2018-01-17T02:37:58.680Z,88.96
2018-01-17T02:38:58.611Z,89.72
2018-01-17T02:40:51.573Z,90.05
2018-01-17T02:41:51.523Z,90.86
2018-01-17T02:43:44.602Z,92.94
2018-01-17T02:44:44.401Z,94.27
2018-01-17T02:46:37.341Z,94.93
2018-01-17T02:47:37.297Z,95.22
2018-01-17T02:49:30.243Z,95.98
2018-01-17T02:50:30.192Z,96.07
2018-01-17T02:52:23.399Z,97.11
2018-01-17T02:53:23.264Z,97.02
2018-01-17T02:55:16.205Z,95.41
2018-01-17T02:56:16.136Z,95.12
2018-01-17T02:58:09.100Z,95.60
2018-01-17T02:59:09.103Z,94.37
2018-01-17T03:01:02.305Z,94.65
2018-01-17T03:02:02.086Z,93.89
2018-01-17T03:03:55.067Z,93.70
2018-01-17T03:04:54.976Z,92.47
2018-01-17T03:06:47.930Z,92.57
2018-01-17T03:07:47.877Z,91.71
2018-01-17T03:09:40.816Z,91.24
2018-01-17T03:10:40.748Z,90.77
2018-01-17T03:12:33.544Z,90.10
2018-01-17T03:13:33.518Z,90.29
2018-01-17T03:15:26.438Z,89.91
2018-01-17T03:16:26.399Z,89.53
2018-01-17T03:18:19.377Z,88.96
2018-01-17T03:19:19.338Z,88.30
2018-01-17T03:21:12.281Z,89.15
2018-01-17T03:22:12.221Z,88.40
2018-01-17T03:24:05.016Z,87.54
2018-01-17T03:25:04.980Z,86.88
2018-01-17T03:26:57.924Z,86.93
2018-01-17T03:27:57.856Z,86.50
2018-01-17T03:29:50.811Z,85.97
2018-01-17T03:30:50.763Z,84.89
2018-01-17T03:32:43.716Z,85.74
2018-01-17T03:33:43.651Z,85.84
2018-01-17T03:35:36.753Z,86.03
2018-01-17T03:36:36.716Z,86.31
2018-01-17T03:38:29.663Z,85.65
2018-01-17T03:39:29.596Z,86.31
2018-01-17T03:41:22.551Z,85.55
2018-01-17T03:42:22.478Z,85.93
2018-01-17T03:44:15.444Z,86.60
2018-01-17T03:45:15.371Z,86.41
2018-01-17T03:47:08.427Z,86.31
2018-01-17T03:48:08.375Z,85.27
2018-01-17T03:50:01.297Z,85.65
2018-01-17T03:51:01.318Z,85.46
2018-01-17T03:52:54.486Z,86.03
2018-01-17T03:53:54.317Z,86.03
2018-01-17T03:55:47.322Z,86.12
2018-01-17T03:56:47.285Z,86.22
2018-01-17T03:58:40.232Z,86.03
2018-01-17T03:59:40.167Z,86.12
2018-01-17T04:01:33.197Z,86.03
2018-01-17T04:02:33.137Z,86.03
2018-01-17T04:04:26.088Z,86.79
2018-01-17T04:05:26.019Z,86.98
2018-01-17T04:07:18.982Z,86.41
2018-01-17T04:08:18.905Z,86.41
2018-01-17T04:10:12.007Z,86.03
2018-01-17T04:11:11.962Z,86.03
2018-01-17T04:13:04.915Z,86.03
2018-01-17T04:14:04.851Z,86.31
2018-01-17T04:15:57.770Z,85.17
2018-01-17T04:16:57.826Z,85.36
2018-01-17T04:18:50.671Z,85.65
2018-01-17T04:19:50.621Z,86.31
2018-01-17T04:21:43.423Z,85.46
2018-01-17T04:22:43.388Z,85.36
2018-01-17T04:24:36.342Z,85.27
2018-01-17T04:25:36.272Z,85.08
2018-01-17T04:27:29.226Z,85.27
2018-01-17T04:28:29.311Z,85.55
2018-01-17T04:30:21.991Z,85.46
2018-01-17T04:31:21.940Z,85.36
2018-01-17T04:33:15.096Z,85.27
2018-01-17T04:34:15.003Z,84.61
2018-01-17T04:36:07.946Z,84.89
2018-01-17T04:37:07.871Z,85.08
2018-01-17T04:39:00.833Z,85.17
2018-01-17T04:40:00.787Z,85.74
2018-01-17T04:41:53.987Z,86.31
2018-01-17T04:42:53.871Z,86.22
2018-01-17T04:44:46.814Z,86.41
2018-01-17T04:45:46.777Z,87.45
2018-01-17T04:47:39.727Z,89.06
2018-01-17T04:48:39.651Z,91.10
2018-01-17T04:50:32.842Z,95.31
2018-01-17T04:51:32.737Z,96.35
2018-01-17T04:53:25.666Z,98.39
2018-01-17T04:54:25.632Z,99.43
2018-01-17T04:56:18.582Z,99.99
2018-01-17T04:57:18.518Z,99.99
2018-01-17T04:59:11.703Z,99.99
2018-01-17T05:00:11.668Z,99.99
2018-01-17T05:02:04.632Z,99.99
2018-01-17T05:03:04.567Z,99.99
2018-01-17T05:04:57.493Z,99.99
2018-01-17T05:05:57.441Z,99.99
2018-01-17T05:07:50.450Z,99.99
2018-01-17T05:08:50.376Z,99.99
2018-01-17T05:10:43.333Z,99.99
2018-01-17T05:11:43.290Z,99.99
2018-01-17T05:13:36.189Z,99.99
2018-01-17T05:14:36.149Z,99.99
2018-01-17T05:16:29.428Z,99.99
2018-01-17T05:17:29.194Z,99.99
2018-01-17T05:19:22.159Z,99.99
2018-01-17T05:20:22.093Z,99.99
2018-01-17T05:22:15.063Z,99.99
2018-01-17T05:23:15.067Z,99.99
2018-01-17T05:25:08.229Z,99.99
2018-01-17T05:26:08.073Z,99.90
2018-01-17T05:28:01.032Z,99.90
2018-01-17T05:29:00.963Z,99.90
2018-01-17T05:30:53.887Z,99.99
2018-01-17T05:31:53.849Z,99.99
2018-01-17T05:33:47.137Z,99.99
2018-01-17T05:34:46.969Z,99.99
2018-01-17T05:36:39.882Z,99.99
2018-01-17T05:37:39.828Z,99.99
2018-01-17T05:39:32.797Z,99.99
2018-01-17T05:40:32.766Z,99.99
2018-01-17T05:42:25.882Z,99.99
2018-01-17T05:43:25.797Z,99.99
2018-01-17T05:45:18.768Z,99.99
2018-01-17T05:46:18.682Z,99.99
2018-01-17T05:48:11.613Z,99.99
2018-01-17T05:49:11.613Z,99.99
2018-01-17T05:51:04.825Z,99.99
2018-01-17T05:52:04.632Z,99.99
2018-01-17T05:53:57.559Z,99.99
2018-01-17T05:54:57.509Z,99.99
2018-01-17T05:56:50.447Z,99.99
2018-01-17T05:57:50.486Z,99.99
2018-01-17T05:59:43.326Z,99.99
2018-01-17T06:00:43.269Z,99.99
2018-01-17T06:02:36.129Z,99.99
2018-01-17T06:03:36.064Z,99.99
2018-01-17T06:05:29.153Z,99.99
2018-01-17T06:06:29.090Z,99.99
2018-01-17T06:08:22.140Z,99.99
2018-01-17T06:09:22.101Z,99.99
2018-01-17T06:11:14.903Z,99.99
2018-01-17T06:12:14.854Z,99.99
2018-01-17T06:14:07.797Z,99.99
2018-01-17T06:15:07.759Z,99.99
2018-01-17T06:17:00.707Z,99.99
2018-01-17T06:18:00.644Z,99.99
2018-01-17T06:19:53.574Z,99.99
2018-01-17T06:20:53.547Z,99.99
2018-01-17T06:22:46.358Z,99.99
2018-01-17T06:23:46.279Z,99.99
2018-01-17T06:25:39.282Z,99.99
2018-01-17T06:26:39.187Z,99.99
2018-01-17T06:28:32.139Z,99.99
2018-01-17T06:29:32.080Z,99.99
2018-01-17T06:31:25.029Z,99.99
2018-01-17T06:32:24.988Z,99.99
2018-01-17T06:34:18.098Z,99.99
2018-01-17T06:35:18.048Z,99.99
2018-01-17T06:37:10.973Z,99.99
2018-01-17T06:38:10.915Z,99.99
2018-01-17T06:40:03.843Z,99.99
2018-01-17T06:41:03.853Z,99.99
2018-01-17T06:42:56.994Z,99.99
2018-01-17T06:43:56.886Z,99.99
2018-01-17T06:45:49.812Z,99.52
2018-01-17T06:46:49.784Z,99.24
2018-01-17T06:48:42.707Z,98.96
2018-01-17T06:49:42.649Z,98.58
2018-01-17T06:51:35.787Z,97.16
2018-01-17T06:52:35.754Z,96.40
2018-01-17T06:54:28.683Z,96.69
2018-01-17T06:55:28.624Z,96.78
2018-01-17T06:57:21.562Z,96.78
2018-01-17T06:58:21.527Z,97.72
2018-01-17T07:00:14.737Z,97.34
2018-01-17T07:01:14.628Z,98.01
2018-01-17T07:03:07.557Z,98.01
2018-01-17T07:04:07.524Z,98.39
2018-01-17T07:06:00.492Z,98.67
2018-01-17T07:07:00.429Z,98.96
2018-01-17T07:08:53.208Z,99.05
2018-01-17T07:09:53.176Z,98.96
2018-01-17T07:11:46.209Z,99.43
2018-01-17T07:12:45.990Z,99.90
2018-01-17T07:14:38.920Z,99.99
2018-01-17T07:15:38.874Z,99.99
2018-01-17T07:17:31.805Z,99.99
2018-01-17T07:18:31.739Z,99.99
2018-01-17T07:20:24.694Z,99.99
2018-01-17T07:21:24.634Z,99.99
2018-01-17T07:23:17.508Z,99.99
2018-01-17T07:24:17.430Z,99.99
2018-01-17T07:26:10.424Z,99.99
2018-01-17T07:27:10.358Z,99.99
2018-01-17T07:29:03.282Z,99.99
2018-01-17T07:30:03.247Z,99.99
2018-01-17T07:31:56.208Z,99.99
2018-01-17T07:32:56.155Z,99.99
2018-01-17T07:34:49.144Z,99.99
2018-01-17T07:35:48.947Z,99.99
2018-01-17T07:37:41.885Z,99.99
2018-01-17T07:38:41.814Z,99.99
2018-01-17T07:40:34.778Z,99.99
2018-01-17T07:41:34.864Z,99.99
2018-01-17T07:43:27.970Z,99.99
2018-01-17T07:44:27.817Z,99.99
2018-01-17T07:46:20.625Z,99.99
2018-01-17T07:47:20.558Z,99.99
2018-01-17T07:49:13.530Z,99.99
2018-01-17T07:50:13.435Z,99.99
2018-01-17T07:52:06.257Z,99.99
2018-01-17T07:53:06.300Z,99.99
2018-01-17T07:54:59.154Z,99.99
2018-01-17T07:55:59.092Z,99.99
2018-01-17T07:57:52.113Z,99.99
2018-01-17T07:58:52.037Z,99.99
2018-01-17T08:00:44.962Z,99.99
2018-01-17T08:01:44.925Z,99.99
2018-01-17T08:03:37.843Z,99.80
2018-01-17T08:04:37.785Z,98.96
2018-01-17T08:06:30.864Z,99.05
2018-01-17T08:07:30.814Z,98.96
2018-01-17T08:09:23.765Z,99.15
2018-01-17T08:10:23.695Z,98.67
2018-01-17T08:12:16.663Z,98.39
2018-01-17T08:13:16.598Z,97.91
2018-01-17T08:15:09.808Z,97.72
2018-01-17T08:16:09.655Z,97.72
2018-01-17T08:18:02.583Z,97.53
2018-01-17T08:19:02.539Z,97.25
2018-01-17T08:20:55.513Z,98.48
2018-01-17T08:21:55.505Z,98.39
2018-01-17T08:23:48.683Z,98.48
2018-01-17T08:24:48.548Z,98.96
2018-01-17T08:26:41.468Z,98.96
2018-01-17T08:27:41.435Z,98.86
2018-01-17T08:29:34.396Z,98.96
2018-01-17T08:30:34.309Z,99.99
2018-01-17T08:32:27.538Z,99.90
2018-01-17T08:33:27.411Z,99.80
2018-01-17T08:35:20.385Z,99.99
2018-01-17T08:36:20.292Z,99.99
2018-01-17T08:38:13.229Z,99.99
2018-01-17T08:39:13.198Z,99.99
2018-01-17T08:41:06.428Z,99.71
2018-01-17T08:42:06.234Z,98.67
2018-01-17T08:43:59.180Z,97.02
2018-01-17T08:44:59.109Z,96.64
2018-01-17T08:46:52.026Z,95.97
2018-01-17T08:47:51.978Z,96.16
2018-01-17T08:49:45.236Z,95.50
2018-01-17T08:50:45.103Z,95.97
2018-01-17T08:52:38.024Z,95.40
2018-01-17T08:53:37.983Z,95.69
2018-01-17T08:55:31.298Z,95.03
2018-01-17T08:56:31.228Z,94.74
2018-01-17T08:58:24.548Z,94.08
2018-01-17T08:59:24.474Z,94.27
2018-01-17T09:01:17.623Z,94.18
2018-01-17T09:02:17.540Z,94.74
2018-01-17T09:04:10.516Z,95.40
2018-01-17T09:05:10.465Z,94.46
2018-01-17T09:07:03.415Z,94.08
2018-01-17T09:08:03.366Z,94.18
2018-01-17T09:09:56.535Z,95.21
2018-01-17T09:10:56.425Z,94.74
2018-01-17T09:12:49.424Z,94.37
2018-01-17T09:13:49.315Z,95.31
2018-01-17T09:15:42.310Z,95.59
2018-01-17T09:16:42.268Z,95.97
2018-01-17T09:18:35.401Z,95.88
2018-01-17T09:19:35.288Z,96.54
2018-01-17T09:21:28.238Z,98.06
2018-01-17T09:22:28.166Z,98.44
2018-01-17T09:24:21.125Z,98.15
2018-01-17T09:25:21.073Z,99.01
2018-01-17T09:27:14.303Z,96.92
2018-01-17T09:28:14.139Z,97.11
2018-01-17T09:30:07.099Z,96.83
2018-01-17T09:31:07.028Z,96.73
2018-01-17T09:32:59.956Z,96.16
2018-01-17T09:33:59.916Z,96.54
2018-01-17T09:35:53.178Z,96.83
2018-01-17T09:36:52.953Z,96.92
2018-01-17T09:38:45.803Z,97.87
2018-01-17T09:39:45.713Z,98.53
2018-01-17T09:41:38.664Z,98.82
2018-01-17T09:42:38.602Z,99.48
2018-01-17T09:44:31.569Z,99.29
2018-01-17T09:45:31.515Z,99.15
2018-01-17T09:47:24.505Z,99.62
2018-01-17T09:48:24.405Z,99.99
2018-01-17T09:50:17.372Z,99.99
2018-01-17T09:51:17.344Z,99.99
2018-01-17T09:53:10.238Z,99.99
2018-01-17T09:54:10.185Z,99.99
2018-01-17T09:56:03.471Z,99.99
2018-01-17T09:57:03.279Z,99.99
2018-01-17T09:58:56.185Z,99.99
2018-01-17T09:59:56.149Z,99.99
2018-01-17T10:01:48.969Z,99.99
2018-01-17T10:02:48.899Z,99.99
2018-01-17T10:04:41.834Z,99.99
2018-01-17T10:05:41.779Z,99.99
2018-01-17T10:07:34.964Z,99.66
2018-01-17T10:08:34.901Z,99.85
2018-01-17T10:10:27.831Z,99.99
2018-01-17T10:11:27.785Z,99.57
2018-01-17T10:13:20.734Z,99.19
2018-01-17T10:14:20.691Z,99.19
2018-01-17T10:16:13.485Z,99.99
2018-01-17T10:17:13.426Z,99.57
2018-01-17T10:19:06.435Z,98.63
2018-01-17T10:20:06.375Z,97.96
2018-01-17T10:21:59.315Z,98.15
2018-01-17T10:22:59.256Z,98.25
2018-01-17T10:24:52.189Z,98.15
2018-01-17T10:25:52.137Z,98.15
2018-01-17T10:27:44.980Z,98.82
2018-01-17T10:28:44.919Z,98.72
2018-01-17T10:30:37.725Z,98.72
2018-01-17T10:31:37.668Z,99.57
2018-01-17T10:33:30.619Z,99.66
2018-01-17T10:34:30.555Z,99.85
2018-01-17T10:36:23.360Z,99.01
2018-01-17T10:37:23.311Z,99.10
2018-01-17T10:39:16.758Z,98.72
2018-01-17T10:40:16.556Z,97.87
2018-01-17T10:42:09.490Z,97.02
2018-01-17T10:43:09.443Z,97.87
2018-01-17T10:45:02.402Z,98.06
2018-01-17T10:46:02.338Z,98.44
2018-01-17T10:47:55.280Z,99.10
2018-01-17T10:48:55.205Z,98.77
2018-01-17T10:50:48.265Z,98.06
2018-01-17T10:51:48.197Z,97.96
2018-01-17T10:53:41.141Z,98.63
2018-01-17T10:54:41.096Z,99.29
2018-01-17T10:56:33.998Z,99.48
2018-01-17T10:57:33.965Z,99.66
2018-01-17T10:59:26.917Z,99.99
2018-01-17T11:00:26.856Z,99.99
2018-01-17T11:02:19.787Z,99.99
2018-01-17T11:03:19.747Z,99.99
2018-01-17T11:05:12.721Z,99.99
2018-01-17T11:06:12.683Z,99.99
2018-01-17T11:08:05.569Z,99.99
2018-01-17T11:09:05.524Z,99.99
2018-01-17T11:10:58.579Z,99.66
2018-01-17T11:11:58.417Z,99.38
2018-01-17T11:13:51.387Z,99.19
2018-01-17T11:14:51.301Z,98.53
2018-01-17T11:16:44.226Z,97.77
2018-01-17T11:17:44.175Z,97.54
2018-01-17T11:19:37.521Z,98.20
2018-01-17T11:20:37.256Z,98.11
2018-01-17T11:22:30.184Z,96.88
2018-01-17T11:23:30.139Z,96.69
2018-01-17T11:25:23.104Z,95.93
2018-01-17T11:26:23.050Z,96.12
2018-01-17T11:28:16.270Z,96.12
2018-01-17T11:29:16.328Z,95.93
2018-01-17T11:31:09.059Z,95.45
2018-01-17T11:32:08.981Z,96.02
2018-01-17T11:34:01.915Z,95.83
2018-01-17T11:35:01.870Z,95.64
2018-01-17T11:36:54.806Z,95.07
2018-01-17T11:37:54.746Z,95.36
2018-01-17T11:39:47.541Z,94.98
2018-01-17T11:40:47.498Z,95.74
2018-01-17T11:42:40.446Z,95.45
2018-01-17T11:43:40.265Z,95.74
2018-01-17T11:45:33.194Z,95.26
2018-01-17T11:46:33.153Z,95.07
2018-01-17T11:48:26.460Z,95.93
2018-01-17T11:49:26.400Z,95.26
2018-01-17T11:51:19.350Z,94.98
2018-01-17T11:52:19.280Z,94.89
2018-01-17T11:54:12.230Z,95.45
2018-01-17T11:55:12.280Z,95.64
2018-01-17T11:57:05.286Z,96.69
2018-01-17T11:58:05.247Z,96.69
2018-01-17T11:59:58.207Z,96.78
2018-01-17T12:00:58.123Z,97.16
2018-01-17T12:02:51.066Z,98.01
2018-01-17T12:03:51.021Z,97.92
2018-01-17T12:05:43.988Z,98.49
2018-01-17T12:06:43.918Z,98.49
2018-01-17T12:08:37.005Z,98.39
2018-01-17T12:09:36.890Z,99.05
2018-01-17T12:11:29.835Z,98.30
2018-01-17T12:12:29.777Z,98.01
2018-01-17T12:14:22.732Z,96.69
2018-01-17T12:15:22.669Z,97.25
2018-01-17T12:17:15.797Z,97.92
2018-01-17T12:18:15.773Z,97.63
2018-01-17T12:20:08.701Z,96.88
2018-01-17T12:21:08.636Z,97.44
2018-01-17T12:23:01.619Z,97.82
2018-01-17T12:24:01.555Z,97.63
2018-01-17T12:25:54.484Z,97.06
2018-01-17T12:26:54.430Z,97.16
2018-01-17T12:28:47.383Z,97.92
2018-01-17T12:29:47.322Z,97.35
2018-01-17T12:31:40.139Z,97.21
2018-01-17T12:32:40.094Z,96.64
2018-01-17T12:34:33.041Z,95.45
2018-01-17T12:35:32.984Z,93.56
2018-01-17T12:37:26.151Z,91.76
2018-01-17T12:38:26.050Z,90.15
2018-01-17T12:40:18.972Z,90.53
2018-01-17T12:41:18.917Z,91.00
2018-01-17T12:43:11.839Z,89.62
2018-01-17T12:44:11.872Z,88.58
2018-01-17T12:46:04.960Z,88.39
2018-01-17T12:47:04.880Z,88.10
2018-01-17T12:48:57.840Z,88.01
2018-01-17T12:49:57.760Z,88.29
2018-01-17T12:51:50.724Z,88.06
2018-01-17T12:52:50.730Z,89.20
2018-01-17T12:54:43.816Z,90.15
2018-01-17T12:55:43.736Z,90.24
2018-01-17T12:57:36.600Z,90.43
2018-01-17T12:58:36.486Z,90.05
2018-01-17T13:00:29.407Z,90.81
2018-01-17T13:01:29.368Z,91.00
2018-01-17T13:03:22.330Z,90.91
2018-01-17T13:04:22.269Z,91.57
2018-01-17T13:06:15.349Z,91.09
2018-01-17T13:07:15.161Z,91.19
2018-01-17T13:09:08.104Z,90.15
2018-01-17T13:10:08.046Z,89.48
2018-01-17T13:12:00.837Z,88.58
2018-01-17T13:13:00.801Z,88.48
2018-01-17T13:14:53.740Z,87.25
2018-01-17T13:15:53.687Z,86.49
2018-01-17T13:17:46.839Z,86.68
2018-01-17T13:18:46.747Z,85.64
2018-01-17T13:20:39.700Z,86.68
2018-01-17T13:21:39.648Z,86.11
2018-01-17T13:23:32.560Z,87.73
2018-01-17T13:24:32.524Z,87.16
2018-01-17T13:26:25.680Z,87.59
2018-01-17T13:27:25.596Z,87.40
2018-01-17T13:29:18.521Z,87.68
2018-01-17T13:30:18.487Z,88.73
2018-01-17T13:32:11.296Z,90.15
2018-01-17T13:33:11.282Z,89.96
2018-01-17T13:35:04.163Z,89.67
2018-01-17T13:36:04.121Z,89.11
2018-01-17T13:37:57.170Z,88.63
2018-01-17T13:38:57.075Z,89.67
2018-01-17T13:40:50.011Z,89.01
2018-01-17T13:41:49.962Z,88.16
2018-01-17T13:43:42.917Z,89.20
2018-01-17T13:44:42.849Z,89.01
2018-01-17T13:46:36.033Z,89.20
2018-01-17T13:47:35.876Z,88.92
2018-01-17T13:49:28.806Z,88.92
2018-01-17T13:50:28.770Z,89.58
2018-01-17T13:52:21.587Z,89.58
2018-01-17T13:53:21.518Z,89.58
2018-01-17T13:55:14.862Z,89.86
2018-01-17T13:56:14.776Z,89.01
2018-01-17T13:58:07.725Z,88.16
2018-01-17T13:59:07.653Z,87.21
2018-01-17T14:01:00.568Z,87.02
2018-01-17T14:02:00.549Z,86.93
2018-01-17T14:03:53.641Z,87.59
2018-01-17T14:04:53.585Z,86.74
2018-01-17T14:06:46.607Z,86.45
2018-01-17T14:07:46.564Z,87.49
2018-01-17T14:09:39.797Z,86.64
2018-01-17T14:10:39.732Z,86.93
2018-01-17T14:12:32.565Z,86.45
2018-01-17T14:13:32.490Z,86.64
2018-01-17T14:15:25.407Z,86.07
2018-01-17T14:16:25.373Z,86.16
2018-01-17T14:18:18.302Z,86.35
2018-01-17T14:19:18.263Z,86.83
2018-01-17T14:21:11.477Z,87.82
2018-01-17T14:22:11.385Z,88.44
2018-01-17T14:24:04.320Z,86.64
2018-01-17T14:25:04.252Z,87.87
2018-01-17T14:26:57.159Z,89.29
2018-01-17T14:27:57.166Z,89.67
2018-01-17T14:29:50.360Z,89.29
2018-01-17T14:30:50.186Z,89.29
2018-01-17T14:32:43.107Z,90.91
2018-01-17T14:33:43.056Z,91.85
2018-01-17T14:35:36.032Z,91.85
2018-01-17T14:36:36.010Z,91.85
2018-01-17T14:38:29.180Z,91.85
2018-01-17T14:39:29.061Z,92.52
2018-01-17T14:41:22.008Z,93.18
2018-01-17T14:42:21.940Z,93.75
2018-01-17T14:44:14.855Z,94.08
2018-01-17T14:45:14.808Z,94.13
2018-01-17T14:47:08.041Z,95.50
2018-01-17T14:48:07.861Z,94.08
2018-01-17T14:50:00.787Z,94.46
2018-01-17T14:51:00.744Z,94.37
2018-01-17T14:52:53.666Z,94.46
2018-01-17T14:53:53.615Z,95.31
2018-01-17T14:55:46.851Z,95.60
2018-01-17T14:56:46.646Z,96.17
2018-01-17T14:58:39.593Z,95.50
2018-01-17T14:59:39.523Z,95.98
2018-01-17T15:01:32.467Z,95.31
2018-01-17T15:02:32.407Z,94.84
2018-01-17T15:04:25.333Z,95.22
2018-01-17T15:05:25.292Z,95.12
2018-01-17T15:07:18.112Z,94.18
2018-01-17T15:08:18.077Z,95.31
2018-01-17T15:10:10.970Z,94.37
2018-01-17T15:11:10.924Z,94.18
2018-01-17T15:13:03.871Z,94.37
2018-01-17T15:14:03.822Z,94.18
2018-01-17T15:15:56.728Z,93.89
2018-01-17T15:16:56.714Z,93.80
2018-01-17T15:18:49.536Z,93.70
2018-01-17T15:19:49.471Z,93.70
2018-01-17T15:21:42.371Z,93.51
2018-01-17T15:22:42.307Z,93.13
2018-01-17T15:24:35.291Z,92.94
2018-01-17T15:25:35.239Z,93.42
2018-01-17T15:27:28.157Z,92.23
2018-01-17T15:28:28.097Z,92.61
2018-01-17T15:30:21.282Z,91.95
2018-01-17T15:31:21.165Z,91.57
2018-01-17T15:33:14.113Z,91.09
2018-01-17T15:34:14.045Z,90.91
2018-01-17T15:36:06.982Z,90.43
2018-01-17T15:37:06.940Z,91.19
2018-01-17T15:39:00.162Z,91.05
2018-01-17T15:39:59.973Z,90.53
2018-01-17T15:41:52.928Z,90.24
2018-01-17T15:42:52.868Z,90.05
2018-01-17T15:44:45.816Z,90.62
2018-01-17T15:45:45.766Z,90.20
2018-01-17T15:47:38.683Z,90.39
2018-01-17T15:48:38.638Z,90.10
2018-01-17T15:50:31.704Z,90.20
2018-01-17T15:51:31.590Z,90.10
2018-01-17T15:53:24.537Z,89.96
2018-01-17T15:54:24.487Z,89.91
2018-01-17T15:56:17.412Z,89.77
2018-01-17T15:57:17.360Z,89.67
2018-01-17T15:59:10.484Z,89.11
2018-01-17T16:00:10.417Z,88.73
2018-01-17T16:02:03.408Z,88.54
2018-01-17T16:03:03.337Z,89.01
2018-01-17T16:04:56.276Z,88.16
2018-01-17T16:05:56.237Z,88.25
2018-01-17T16:07:49.361Z,88.82
2018-01-17T16:08:49.325Z,88.25
2018-01-17T16:10:42.141Z,88.06
2018-01-17T16:11:42.071Z,87.40
2018-01-17T16:13:34.981Z,87.68
2018-01-17T16:14:35.043Z,87.59
2018-01-17T16:16:27.866Z,87.59
2018-01-17T16:17:27.817Z,87.21
2018-01-17T16:19:20.605Z,87.30
2018-01-17T16:20:20.594Z,86.16
2018-01-17T16:22:13.448Z,86.93
2018-01-17T16:23:13.337Z,86.64
2018-01-17T16:25:06.313Z,86.45
2018-01-17T16:26:06.263Z,85.03
2018-01-17T16:27:59.197Z,85.31
2018-01-17T16:28:59.141Z,85.69
2018-01-17T16:30:52.426Z,85.60
2018-01-17T16:31:52.193Z,85.88
2018-01-17T16:33:45.108Z,86.35
2018-01-17T16:34:45.061Z,86.74
2018-01-17T16:36:38.029Z,86.35
2018-01-17T16:37:37.976Z,85.97
2018-01-17T16:39:31.113Z,86.16
2018-01-17T16:40:30.956Z,86.64
2018-01-17T16:42:23.924Z,86.35
2018-01-17T16:43:23.857Z,86.35
2018-01-17T16:45:16.778Z,85.78
2018-01-17T16:46:16.755Z,85.31
2018-01-17T16:48:09.571Z,85.50
2018-01-17T16:49:09.507Z,84.84
2018-01-17T16:51:02.636Z,84.46
2018-01-17T16:52:02.526Z,84.84
2018-01-17T16:53:55.347Z,85.13
2018-01-17T16:54:55.321Z,84.65
2018-01-17T16:56:48.231Z,85.69
2018-01-17T16:57:48.186Z,85.88
2018-01-17T16:59:41.113Z,86.26
2018-01-17T17:00:41.058Z,86.74
2018-01-17T17:02:33.914Z,87.12
2018-01-17T17:03:33.859Z,87.77
2018-01-17T17:05:26.736Z,88.35
2018-01-17T17:06:26.651Z,87.83
2018-01-17T17:08:19.593Z,88.49
2018-01-17T17:09:19.540Z,88.87
2018-01-17T17:11:12.453Z,88.96
2018-01-17T17:12:12.414Z,89.25
2018-01-17T17:14:05.549Z,90.29
2018-01-17T17:15:05.482Z,89.82
2018-01-17T17:16:58.401Z,90.10
2018-01-17T17:17:58.386Z,90.29
2018-01-17T17:19:51.321Z,90.29
2018-01-17T17:20:51.309Z,89.53
2018-01-17T17:22:44.304Z,89.77
2018-01-17T17:23:44.267Z,90.15
2018-01-17T17:25:37.214Z,90.05
2018-01-17T17:26:37.163Z,89.72
2018-01-17T17:28:30.123Z,89.44
2018-01-17T17:29:30.099Z,89.53
2018-01-17T17:31:22.988Z,89.44
2018-01-17T17:32:22.942Z,90.10
2018-01-17T17:34:15.784Z,88.82
2018-01-17T17:35:15.721Z,88.92
2018-01-17T17:37:08.567Z,87.87
2018-01-17T17:38:08.493Z,87.68
2018-01-17T17:40:01.418Z,87.30
2018-01-17T17:41:01.348Z,87.21
2018-01-17T17:42:54.291Z,87.59
2018-01-17T17:43:54.363Z,86.93
2018-01-17T17:45:47.468Z,86.74
2018-01-17T17:46:47.320Z,86.74
2018-01-17T17:48:40.228Z,85.69
2018-01-17T17:49:40.184Z,84.74
2018-01-17T17:51:33.133Z,85.13
2018-01-17T17:52:33.071Z,84.74
2018-01-17T17:54:26.400Z,85.41
2018-01-17T17:55:26.143Z,84.84
2018-01-17T17:57:19.078Z,83.51
2018-01-17T17:58:19.006Z,83.32
2018-01-17T18:00:11.947Z,83.98
2018-01-17T18:01:11.895Z,83.42
2018-01-17T18:03:05.167Z,82.94
2018-01-17T18:04:05.011Z,83.32
2018-01-17T18:05:57.955Z,82.56
2018-01-17T18:06:57.894Z,82.37
2018-01-17T18:08:50.848Z,81.81
2018-01-17T18:09:50.767Z,82.18
2018-01-17T18:11:43.583Z,82.75
2018-01-17T18:12:43.527Z,82.66
2018-01-17T18:14:36.352Z,82.37
2018-01-17T18:15:36.282Z,83.04
2018-01-17T18:17:29.133Z,83.13
2018-01-17T18:18:29.117Z,82.66
2018-01-17T18:20:21.893Z,82.85
2018-01-17T18:21:21.838Z,81.99
2018-01-17T18:23:14.866Z,81.81
2018-01-17T18:24:14.955Z,81.90
2018-01-17T18:26:07.745Z,81.71
2018-01-17T18:27:07.719Z,81.81
2018-01-17T18:29:00.589Z,81.24
2018-01-17T18:30:00.512Z,81.24
2018-01-17T18:31:53.452Z,80.19
2018-01-17T18:32:53.411Z,80.38